sensor_id;sensor_type;location;lat;lon;timestamp;pressure;altitude;pressure_sealevel;temperature;humidity
59063;BME280;44851;45.648;9.004;2023-01-27T00:02:10;98616.38;;;4.71;61.52
59063;BME280;44851;45.648;9.004;2023-01-27T00:04:35;98608.38;;;4.74;61.27
59063;BME280;44851;45.648;9.004;2023-01-27T00:07:00;98610.38;;;4.71;61.48
59063;BME280;44851;45.648;9.004;2023-01-27T00:09:26;98604.00;;;4.64;61.44
59063;BME280;44851;45.648;9.004;2023-01-27T00:11:51;98595.13;;;4.68;61.85
59063;BME280;44851;45.648;9.004;2023-01-27T00:14:35;98591.34;;;4.61;61.66
59063;BME280;44851;45.648;9.004;2023-01-27T00:17:00;98597.44;;;4.59;61.99
59063;BME280;44851;45.648;9.004;2023-01-27T00:19:26;98594.13;;;4.57;62.16
59063;BME280;44851;45.648;9.004;2023-01-27T00:21:51;98591.66;;;4.56;62.57
59063;BME280;44851;45.648;9.004;2023-01-27T00:24:35;98596.19;;;4.41;62.02
59063;BME280;44851;45.648;9.004;2023-01-27T00:27:02;98599.25;;;4.46;62.35
59063;BME280;44851;45.648;9.004;2023-01-27T00:29:28;98595.16;;;4.44;62.70
59063;BME280;44851;45.648;9.004;2023-01-27T00:31:53;98592.72;;;4.53;61.89
59063;BME280;44851;45.648;9.004;2023-01-27T00:34:37;98586.78;;;4.40;62.34
59063;BME280;44851;45.648;9.004;2023-01-27T00:37:04;98585.81;;;4.54;62.45
59063;BME280;44851;45.648;9.004;2023-01-27T00:39:30;98580.03;;;4.50;61.98
59063;BME280;44851;45.648;9.004;2023-01-27T00:41:55;98578.66;;;4.57;62.63
59063;BME280;44851;45.648;9.004;2023-01-27T00:44:20;98571.16;;;4.54;62.14
59063;BME280;44851;45.648;9.004;2023-01-27T00:46:48;98583.09;;;4.55;62.11
59063;BME280;44851;45.648;9.004;2023-01-27T00:49:13;98579.72;;;4.55;62.35
59063;BME280;44851;45.648;9.004;2023-01-27T00:51:39;98582.63;;;4.50;61.63
59063;BME280;44851;45.648;9.004;2023-01-27T00:54:05;98578.59;;;4.46;61.08
59063;BME280;44851;45.648;9.004;2023-01-27T00:56:30;98583.56;;;4.49;60.88
59063;BME280;44851;45.648;9.004;2023-01-27T00:58:56;98594.75;;;4.61;61.87
59063;BME280;44851;45.648;9.004;2023-01-27T01:01:21;98577.88;;;4.68;61.08
59063;BME280;44851;45.648;9.004;2023-01-27T01:03:47;98588.31;;;4.67;61.52
59063;BME280;44851;45.648;9.004;2023-01-27T01:06:14;98577.97;;;4.67;61.40
59063;BME280;44851;45.648;9.004;2023-01-27T01:08:40;98585.50;;;4.70;61.19
59063;BME280;44851;45.648;9.004;2023-01-27T01:11:08;98588.97;;;4.57;60.13
59063;BME280;44851;45.648;9.004;2023-01-27T01:13:35;98592.66;;;4.42;60.21
59063;BME280;44851;45.648;9.004;2023-01-27T01:16:21;98590.56;;;4.47;59.47
59063;BME280;44851;45.648;9.004;2023-01-27T01:18:47;98591.94;;;4.64;60.56
59063;BME280;44851;45.648;9.004;2023-01-27T01:21:12;98584.63;;;4.58;60.62
59063;BME280;44851;45.648;9.004;2023-01-27T01:23:40;98588.72;;;4.49;59.83
59063;BME280;44851;45.648;9.004;2023-01-27T01:26:05;98580.31;;;4.58;60.65
59063;BME280;44851;45.648;9.004;2023-01-27T01:28:31;98583.44;;;4.51;60.67
59063;BME280;44851;45.648;9.004;2023-01-27T01:31:02;98591.50;;;4.46;59.35
59063;BME280;44851;45.648;9.004;2023-01-27T01:33:28;98587.78;;;4.50;59.71
59063;BME280;44851;45.648;9.004;2023-01-27T01:35:53;98585.56;;;4.57;58.33
59063;BME280;44851;45.648;9.004;2023-01-27T01:38:18;98579.47;;;4.58;59.33
59063;BME280;44851;45.648;9.004;2023-01-27T01:40:44;98583.16;;;4.67;60.19
59063;BME280;44851;45.648;9.004;2023-01-27T01:43:14;98577.03;;;4.68;59.41
59063;BME280;44851;45.648;9.004;2023-01-27T01:45:50;98581.34;;;4.56;59.64
59063;BME280;44851;45.648;9.004;2023-01-27T01:50:58;98580.91;;;4.62;59.52
59063;BME280;44851;45.648;9.004;2023-01-27T01:53:29;98580.06;;;4.62;60.54
59063;BME280;44851;45.648;9.004;2023-01-27T01:56:01;98586.47;;;4.45;60.55
59063;BME280;44851;45.648;9.004;2023-01-27T01:58:29;98581.44;;;4.43;60.30
59063;BME280;44851;45.648;9.004;2023-01-27T02:00:55;98581.88;;;4.37;59.44
59063;BME280;44851;45.648;9.004;2023-01-27T02:03:22;98577.91;;;4.44;59.77
59063;BME280;44851;45.648;9.004;2023-01-27T02:05:49;98584.66;;;4.34;60.09
59063;BME280;44851;45.648;9.004;2023-01-27T02:08:23;98587.03;;;4.37;60.62
59063;BME280;44851;45.648;9.004;2023-01-27T02:10:51;98580.44;;;4.33;59.89
59063;BME280;44851;45.648;9.004;2023-01-27T02:13:19;98580.81;;;4.40;60.33
59063;BME280;44851;45.648;9.004;2023-01-27T02:15:44;98574.38;;;4.45;59.78
59063;BME280;44851;45.648;9.004;2023-01-27T02:18:10;98568.28;;;4.46;60.22
59063;BME280;44851;45.648;9.004;2023-01-27T02:20:52;98576.91;;;4.34;59.35
59063;BME280;44851;45.648;9.004;2023-01-27T02:26:00;98575.13;;;4.23;60.04
59063;BME280;44851;45.648;9.004;2023-01-27T02:28:28;98565.53;;;4.37;60.05
59063;BME280;44851;45.648;9.004;2023-01-27T02:30:53;98581.25;;;4.33;60.40
59063;BME280;44851;45.648;9.004;2023-01-27T02:33:19;98577.09;;;4.44;60.69
59063;BME280;44851;45.648;9.004;2023-01-27T02:38:20;98573.44;;;4.46;59.83
59063;BME280;44851;45.648;9.004;2023-01-27T02:40:48;98581.19;;;4.46;59.38
59063;BME280;44851;45.648;9.004;2023-01-27T02:43:14;98581.59;;;4.29;59.90
59063;BME280;44851;45.648;9.004;2023-01-27T02:45:40;98586.31;;;4.35;60.22
59063;BME280;44851;45.648;9.004;2023-01-27T02:48:05;98583.06;;;4.44;60.25
59063;BME280;44851;45.648;9.004;2023-01-27T02:50:31;98574.19;;;4.48;60.25
59063;BME280;44851;45.648;9.004;2023-01-27T02:52:57;98572.28;;;4.50;60.45
59063;BME280;44851;45.648;9.004;2023-01-27T02:55:22;98576.81;;;4.36;60.64
59063;BME280;44851;45.648;9.004;2023-01-27T02:57:48;98574.38;;;4.45;60.95
59063;BME280;44851;45.648;9.004;2023-01-27T03:00:13;98575.81;;;4.49;60.91
59063;BME280;44851;45.648;9.004;2023-01-27T03:02:38;98574.38;;;4.45;61.09
59063;BME280;44851;45.648;9.004;2023-01-27T03:05:04;98571.69;;;4.47;61.22
59063;BME280;44851;45.648;9.004;2023-01-27T03:07:29;98575.56;;;4.52;60.45
59063;BME280;44851;45.648;9.004;2023-01-27T03:09:55;98575.38;;;4.55;60.55
59063;BME280;44851;45.648;9.004;2023-01-27T03:12:20;98566.84;;;4.42;60.52
59063;BME280;44851;45.648;9.004;2023-01-27T03:14:47;98568.13;;;4.13;60.40
59063;BME280;44851;45.648;9.004;2023-01-27T03:17:31;98570.78;;;4.24;60.28
59063;BME280;44851;45.648;9.004;2023-01-27T03:20:15;98566.97;;;4.41;60.96
59063;BME280;44851;45.648;9.004;2023-01-27T03:22:41;98576.59;;;4.39;61.08
59063;BME280;44851;45.648;9.004;2023-01-27T03:25:06;98569.88;;;4.36;61.08
59063;BME280;44851;45.648;9.004;2023-01-27T03:27:33;98571.63;;;4.36;61.51
59063;BME280;44851;45.648;9.004;2023-01-27T03:29:59;98572.78;;;4.31;60.72
59063;BME280;44851;45.648;9.004;2023-01-27T03:32:27;98567.78;;;4.41;61.24
59063;BME280;44851;45.648;9.004;2023-01-27T03:34:53;98569.44;;;4.42;61.36
59063;BME280;44851;45.648;9.004;2023-01-27T03:37:23;98574.59;;;4.42;61.30
59063;BME280;44851;45.648;9.004;2023-01-27T03:40:08;98563.81;;;4.37;61.33
59063;BME280;44851;45.648;9.004;2023-01-27T03:42:52;98563.91;;;4.36;60.73
59063;BME280;44851;45.648;9.004;2023-01-27T03:45:36;98561.44;;;4.34;61.07
59063;BME280;44851;45.648;9.004;2023-01-27T03:48:20;98562.19;;;4.47;61.17
59063;BME280;44851;45.648;9.004;2023-01-27T03:50:46;98561.22;;;4.37;61.03
59063;BME280;44851;45.648;9.004;2023-01-27T03:53:21;98561.81;;;4.41;61.01
59063;BME280;44851;45.648;9.004;2023-01-27T03:55:47;98556.97;;;4.36;60.44
59063;BME280;44851;45.648;9.004;2023-01-27T03:58:33;98560.06;;;4.41;59.33
59063;BME280;44851;45.648;9.004;2023-01-27T04:01:12;98569.22;;;4.45;59.90
59063;BME280;44851;45.648;9.004;2023-01-27T04:03:37;98556.66;;;4.41;60.51
59063;BME280;44851;45.648;9.004;2023-01-27T04:06:24;98562.31;;;4.46;60.43
59063;BME280;44851;45.648;9.004;2023-01-27T04:09:09;98567.72;;;4.43;60.56
59063;BME280;44851;45.648;9.004;2023-01-27T04:11:36;98578.34;;;4.38;60.44
59063;BME280;44851;45.648;9.004;2023-01-27T04:14:26;98575.72;;;4.27;60.62
59063;BME280;44851;45.648;9.004;2023-01-27T04:16:54;98573.72;;;4.30;60.82
59063;BME280;44851;45.648;9.004;2023-01-27T04:19:20;98576.75;;;4.24;60.58
59063;BME280;44851;45.648;9.004;2023-01-27T04:21:46;98574.28;;;4.23;60.80
59063;BME280;44851;45.648;9.004;2023-01-27T04:24:12;98575.81;;;4.25;60.78
59063;BME280;44851;45.648;9.004;2023-01-27T04:26:45;98582.53;;;4.28;60.99
59063;BME280;44851;45.648;9.004;2023-01-27T04:29:11;98579.22;;;4.26;60.53
59063;BME280;44851;45.648;9.004;2023-01-27T04:31:38;98579.38;;;4.36;61.33
59063;BME280;44851;45.648;9.004;2023-01-27T04:34:04;98570.56;;;4.27;61.02
59063;BME280;44851;45.648;9.004;2023-01-27T04:36:29;98575.28;;;4.33;60.88
59063;BME280;44851;45.648;9.004;2023-01-27T04:38:55;98577.31;;;4.17;61.17
59063;BME280;44851;45.648;9.004;2023-01-27T04:41:20;98580.28;;;4.23;61.18
59063;BME280;44851;45.648;9.004;2023-01-27T04:43:46;98575.44;;;3.95;60.50
59063;BME280;44851;45.648;9.004;2023-01-27T04:46:11;98572.31;;;4.02;60.63
59063;BME280;44851;45.648;9.004;2023-01-27T04:48:36;98573.75;;;4.06;60.83
59063;BME280;44851;45.648;9.004;2023-01-27T04:51:02;98576.63;;;4.02;61.28
59063;BME280;44851;45.648;9.004;2023-01-27T04:53:27;98571.91;;;3.96;60.72
59063;BME280;44851;45.648;9.004;2023-01-27T04:56:01;98581.69;;;4.03;59.82
59063;BME280;44851;45.648;9.004;2023-01-27T04:58:26;98572.75;;;3.96;59.88
59063;BME280;44851;45.648;9.004;2023-01-27T05:00:52;98587.16;;;3.99;60.34
59063;BME280;44851;45.648;9.004;2023-01-27T05:03:17;98584.69;;;3.97;60.05
59063;BME280;44851;45.648;9.004;2023-01-27T05:05:42;98580.25;;;3.99;59.55
59063;BME280;44851;45.648;9.004;2023-01-27T05:08:09;98583.88;;;3.97;59.40
59063;BME280;44851;45.648;9.004;2023-01-27T05:10:35;98583.47;;;3.90;59.49
59063;BME280;44851;45.648;9.004;2023-01-27T05:13:01;98590.41;;;3.90;59.86
59063;BME280;44851;45.648;9.004;2023-01-27T05:15:27;98589.03;;;3.97;59.55
59063;BME280;44851;45.648;9.004;2023-01-27T05:17:53;98591.75;;;3.83;59.78
59063;BME280;44851;45.648;9.004;2023-01-27T05:20:18;98584.44;;;3.89;60.07
59063;BME280;44851;45.648;9.004;2023-01-27T05:22:44;98591.16;;;3.79;60.03
59063;BME280;44851;45.648;9.004;2023-01-27T05:25:09;98594.44;;;3.81;60.70
59063;BME280;44851;45.648;9.004;2023-01-27T05:27:34;98594.81;;;3.88;60.72
59063;BME280;44851;45.648;9.004;2023-01-27T05:30:00;98599.47;;;3.83;60.57
59063;BME280;44851;45.648;9.004;2023-01-27T05:32:26;98595.88;;;3.72;60.58
59063;BME280;44851;45.648;9.004;2023-01-27T05:34:51;98601.97;;;3.84;60.89
59063;BME280;44851;45.648;9.004;2023-01-27T05:37:16;98605.56;;;3.82;60.71
59063;BME280;44851;45.648;9.004;2023-01-27T05:39:42;98610.72;;;3.82;60.68
59063;BME280;44851;45.648;9.004;2023-01-27T05:42:07;98610.41;;;3.86;59.94
59063;BME280;44851;45.648;9.004;2023-01-27T05:44:33;98620.22;;;3.81;60.76
59063;BME280;44851;45.648;9.004;2023-01-27T05:46:58;98613.41;;;3.80;60.11
59063;BME280;44851;45.648;9.004;2023-01-27T05:49:23;98609.06;;;3.80;60.42
59063;BME280;44851;45.648;9.004;2023-01-27T05:51:48;98615.47;;;3.75;60.47
59063;BME280;44851;45.648;9.004;2023-01-27T05:54:14;98622.69;;;3.70;60.46
59063;BME280;44851;45.648;9.004;2023-01-27T05:56:39;98622.91;;;3.67;60.61
59063;BME280;44851;45.648;9.004;2023-01-27T05:59:05;98623.91;;;3.77;60.09
59063;BME280;44851;45.648;9.004;2023-01-27T06:01:32;98627.63;;;3.73;59.74
59063;BME280;44851;45.648;9.004;2023-01-27T06:03:58;98625.28;;;3.70;60.34
59063;BME280;44851;45.648;9.004;2023-01-27T06:06:25;98630.31;;;3.71;60.00
59063;BME280;44851;45.648;9.004;2023-01-27T06:08:51;98636.31;;;3.72;60.69
59063;BME280;44851;45.648;9.004;2023-01-27T06:11:17;98635.06;;;3.65;59.79
59063;BME280;44851;45.648;9.004;2023-01-27T06:13:47;98641.44;;;3.72;59.76
59063;BME280;44851;45.648;9.004;2023-01-27T06:16:14;98640.44;;;3.74;59.57
59063;BME280;44851;45.648;9.004;2023-01-27T06:18:42;98644.97;;;3.71;60.04
59063;BME280;44851;45.648;9.004;2023-01-27T06:21:09;98639.63;;;3.74;59.43
59063;BME280;44851;45.648;9.004;2023-01-27T06:23:35;98645.47;;;3.76;60.13
59063;BME280;44851;45.648;9.004;2023-01-27T06:26:03;98649.91;;;3.74;59.73
59063;BME280;44851;45.648;9.004;2023-01-27T06:28:30;98652.50;;;3.74;59.54
59063;BME280;44851;45.648;9.004;2023-01-27T06:31:06;98661.78;;;3.64;58.84
59063;BME280;44851;45.648;9.004;2023-01-27T06:33:32;98657.56;;;3.63;59.74
59063;BME280;44851;45.648;9.004;2023-01-27T06:36:02;98660.13;;;3.63;59.17
59063;BME280;44851;45.648;9.004;2023-01-27T06:38:28;98666.00;;;3.65;59.80
59063;BME280;44851;45.648;9.004;2023-01-27T06:40:53;98671.78;;;3.68;59.57
59063;BME280;44851;45.648;9.004;2023-01-27T06:43:19;98667.22;;;3.72;59.74
59063;BME280;44851;45.648;9.004;2023-01-27T06:45:44;98665.78;;;3.68;59.74
59063;BME280;44851;45.648;9.004;2023-01-27T06:48:09;98666.72;;;3.67;59.39
59063;BME280;44851;45.648;9.004;2023-01-27T06:50:35;98668.16;;;3.71;59.95
59063;BME280;44851;45.648;9.004;2023-01-27T06:53:03;98659.91;;;3.66;60.26
59063;BME280;44851;45.648;9.004;2023-01-27T06:55:29;98674.03;;;3.73;59.92
59063;BME280;44851;45.648;9.004;2023-01-27T06:57:55;98677.75;;;3.69;59.50
59063;BME280;44851;45.648;9.004;2023-01-27T07:00:20;98673.81;;;3.76;60.03
59063;BME280;44851;45.648;9.004;2023-01-27T07:02:46;98673.50;;;3.68;59.83
59063;BME280;44851;45.648;9.004;2023-01-27T07:10:15;98685.56;;;3.67;60.32
59063;BME280;44851;45.648;9.004;2023-01-27T07:12:40;98687.66;;;3.75;60.92
59063;BME280;44851;45.648;9.004;2023-01-27T07:15:08;98693.00;;;3.72;60.30
59063;BME280;44851;45.648;9.004;2023-01-27T07:17:34;98696.50;;;3.71;59.83
59063;BME280;44851;45.648;9.004;2023-01-27T07:20:00;98700.44;;;3.64;59.42
59063;BME280;44851;45.648;9.004;2023-01-27T07:22:25;98703.53;;;3.69;60.65
59063;BME280;44851;45.648;9.004;2023-01-27T07:24:51;98698.56;;;3.66;60.57
59063;BME280;44851;45.648;9.004;2023-01-27T07:27:16;98701.66;;;3.71;58.72
59063;BME280;44851;45.648;9.004;2023-01-27T07:29:42;98701.03;;;3.67;59.79
59063;BME280;44851;45.648;9.004;2023-01-27T07:32:08;98709.69;;;3.66;59.60
59063;BME280;44851;45.648;9.004;2023-01-27T07:34:33;98709.81;;;3.65;58.94
59063;BME280;44851;45.648;9.004;2023-01-27T07:36:59;98720.84;;;3.67;59.43
59063;BME280;44851;45.648;9.004;2023-01-27T07:39:24;98714.16;;;3.64;59.12
59063;BME280;44851;45.648;9.004;2023-01-27T07:41:51;98722.38;;;3.82;58.72
59063;BME280;44851;45.648;9.004;2023-01-27T07:44:16;98718.16;;;3.81;59.73
59063;BME280;44851;45.648;9.004;2023-01-27T07:46:41;98718.34;;;3.78;58.88
59063;BME280;44851;45.648;9.004;2023-01-27T07:49:07;98727.25;;;3.74;59.42
59063;BME280;44851;45.648;9.004;2023-01-27T07:51:33;98728.47;;;3.81;59.57
59063;BME280;44851;45.648;9.004;2023-01-27T07:53:59;98727.44;;;3.71;57.32
59063;BME280;44851;45.648;9.004;2023-01-27T07:56:24;98729.09;;;3.85;57.83
59063;BME280;44851;45.648;9.004;2023-01-27T07:58:52;98726.31;;;3.88;57.10
59063;BME280;44851;45.648;9.004;2023-01-27T08:01:17;98730.00;;;3.84;58.67
59063;BME280;44851;45.648;9.004;2023-01-27T08:03:43;98729.81;;;3.74;58.57
59063;BME280;44851;45.648;9.004;2023-01-27T08:06:10;98733.22;;;3.87;58.40
59063;BME280;44851;45.648;9.004;2023-01-27T08:08:36;98743.34;;;3.90;58.34
59063;BME280;44851;45.648;9.004;2023-01-27T08:11:06;98735.59;;;3.90;57.91
59063;BME280;44851;45.648;9.004;2023-01-27T08:13:35;98746.09;;;3.87;56.89
59063;BME280;44851;45.648;9.004;2023-01-27T08:16:02;98743.75;;;3.84;58.53
59063;BME280;44851;45.648;9.004;2023-01-27T08:18:31;98746.00;;;3.89;58.73
59063;BME280;44851;45.648;9.004;2023-01-27T08:21:01;98746.84;;;3.89;57.87
59063;BME280;44851;45.648;9.004;2023-01-27T08:23:27;98740.53;;;3.93;57.55
59063;BME280;44851;45.648;9.004;2023-01-27T08:25:55;98746.22;;;3.86;58.14
59063;BME280;44851;45.648;9.004;2023-01-27T08:28:21;98751.16;;;3.76;57.46
59063;BME280;44851;45.648;9.004;2023-01-27T08:30:47;98749.09;;;4.06;56.54
59063;BME280;44851;45.648;9.004;2023-01-27T08:33:16;98753.53;;;3.79;57.31
59063;BME280;44851;45.648;9.004;2023-01-27T08:35:42;98755.19;;;3.80;57.48
59063;BME280;44851;45.648;9.004;2023-01-27T08:38:09;98762.09;;;3.92;57.50
59063;BME280;44851;45.648;9.004;2023-01-27T08:40:35;98764.16;;;4.13;55.96
59063;BME280;44851;45.648;9.004;2023-01-27T08:43:01;98765.38;;;3.94;57.74
59063;BME280;44851;45.648;9.004;2023-01-27T08:45:27;98758.81;;;3.90;56.91
59063;BME280;44851;45.648;9.004;2023-01-27T08:47:52;98769.13;;;3.90;57.60
59063;BME280;44851;45.648;9.004;2023-01-27T08:50:18;98765.38;;;3.94;56.88
59063;BME280;44851;45.648;9.004;2023-01-27T08:52:43;98774.25;;;4.03;56.12
59063;BME280;44851;45.648;9.004;2023-01-27T08:55:09;98773.84;;;3.96;56.44
59063;BME280;44851;45.648;9.004;2023-01-27T08:57:35;98773.63;;;3.99;57.27
59063;BME280;44851;45.648;9.004;2023-01-27T09:00:01;98776.53;;;4.07;56.52
59063;BME280;44851;45.648;9.004;2023-01-27T09:02:26;98784.56;;;4.16;56.57
59063;BME280;44851;45.648;9.004;2023-01-27T09:04:52;98779.63;;;4.13;54.40
59063;BME280;44851;45.648;9.004;2023-01-27T09:07:18;98778.59;;;4.02;55.70
59063;BME280;44851;45.648;9.004;2023-01-27T09:09:47;98781.88;;;4.04;55.99
59063;BME280;44851;45.648;9.004;2023-01-27T09:12:13;98771.19;;;4.11;56.30
59063;BME280;44851;45.648;9.004;2023-01-27T09:14:38;98782.28;;;4.24;54.35
59063;BME280;44851;45.648;9.004;2023-01-27T09:17:04;98789.53;;;4.19;55.02
59063;BME280;44851;45.648;9.004;2023-01-27T09:19:30;98786.22;;;4.17;55.73
59063;BME280;44851;45.648;9.004;2023-01-27T09:21:55;98787.34;;;4.25;54.99
59063;BME280;44851;45.648;9.004;2023-01-27T09:24:20;98787.75;;;4.19;55.17
59063;BME280;44851;45.648;9.004;2023-01-27T09:26:46;98790.44;;;4.30;53.81
59063;BME280;44851;45.648;9.004;2023-01-27T09:29:11;98787.84;;;4.43;53.05
59063;BME280;44851;45.648;9.004;2023-01-27T09:31:37;98790.88;;;4.37;53.33
59063;BME280;44851;45.648;9.004;2023-01-27T09:34:02;98788.28;;;4.37;54.11
59063;BME280;44851;45.648;9.004;2023-01-27T09:36:29;98793.63;;;4.34;54.61
59063;BME280;44851;45.648;9.004;2023-01-27T09:39:01;98785.03;;;4.46;54.15
59063;BME280;44851;45.648;9.004;2023-01-27T10:04:28;98796.94;;;4.49;52.80
59063;BME280;44851;45.648;9.004;2023-01-27T10:15:48;98791.84;;;4.60;53.37
59063;BME280;44851;45.648;9.004;2023-01-27T10:18:41;98785.13;;;4.70;52.42
59063;BME280;44851;45.648;9.004;2023-01-27T10:28:49;98778.13;;;4.59;51.66
59063;BME280;44851;45.648;9.004;2023-01-27T10:31:26;98773.91;;;4.58;52.28
59063;BME280;44851;45.648;9.004;2023-01-27T10:33:55;98773.28;;;4.79;52.42
59063;BME280;44851;45.648;9.004;2023-01-27T10:42:06;98766.50;;;4.78;53.28
59063;BME280;44851;45.648;9.004;2023-01-27T10:48:00;98768.38;;;4.76;52.79
59063;BME280;44851;45.648;9.004;2023-01-27T10:50:54;98756.16;;;4.78;53.13
59063;BME280;44851;45.648;9.004;2023-01-27T11:01:35;98751.78;;;4.91;50.23
59063;BME280;44851;45.648;9.004;2023-01-27T11:04:10;98758.09;;;4.87;50.62
59063;BME280;44851;45.648;9.004;2023-01-27T11:06:40;98753.44;;;4.92;52.44
59063;BME280;44851;45.648;9.004;2023-01-27T11:09:14;98755.06;;;4.93;50.65
59063;BME280;44851;45.648;9.004;2023-01-27T11:11:44;98756.28;;;5.00;51.63
59063;BME280;44851;45.648;9.004;2023-01-27T11:14:29;98756.63;;;4.96;49.95
59063;BME280;44851;45.648;9.004;2023-01-27T11:17:00;98750.91;;;5.03;51.18
59063;BME280;44851;45.648;9.004;2023-01-27T11:19:34;98751.78;;;4.91;51.88
59063;BME280;44851;45.648;9.004;2023-01-27T11:22:05;98747.06;;;4.85;51.26
59063;BME280;44851;45.648;9.004;2023-01-27T11:24:44;98749.34;;;4.77;51.28
59063;BME280;44851;45.648;9.004;2023-01-27T11:29:50;98754.53;;;4.77;50.20
59063;BME280;44851;45.648;9.004;2023-01-27T11:32:51;98745.00;;;4.53;50.75
59063;BME280;44851;45.648;9.004;2023-01-27T11:35:21;98748.53;;;4.76;51.10
59063;BME280;44851;45.648;9.004;2023-01-27T11:37:48;98747.72;;;4.76;49.90
59063;BME280;44851;45.648;9.004;2023-01-27T11:40:33;98744.31;;;4.39;49.00
59063;BME280;44851;45.648;9.004;2023-01-27T11:43:01;98742.63;;;4.50;49.85
59063;BME280;44851;45.648;9.004;2023-01-27T11:45:32;98739.22;;;4.74;51.80
59063;BME280;44851;45.648;9.004;2023-01-27T11:47:59;98733.06;;;4.64;50.10
59063;BME280;44851;45.648;9.004;2023-01-27T11:50:29;98724.69;;;4.73;50.06
59063;BME280;44851;45.648;9.004;2023-01-27T11:55:43;98726.66;;;4.93;50.09
59063;BME280;44851;45.648;9.004;2023-01-27T11:58:20;98719.03;;;4.92;49.23
59063;BME280;44851;45.648;9.004;2023-01-27T12:00:51;98722.66;;;4.89;49.69
59063;BME280;44851;45.648;9.004;2023-01-27T12:06:26;98717.41;;;4.91;49.15
59063;BME280;44851;45.648;9.004;2023-01-27T12:08:55;98713.22;;;4.77;49.47
59063;BME280;44851;45.648;9.004;2023-01-27T12:11:23;98709.25;;;4.84;49.71
59063;BME280;44851;45.648;9.004;2023-01-27T12:16:15;98711.25;;;4.80;50.57
59063;BME280;44851;45.648;9.004;2023-01-27T12:18:53;98706.41;;;4.76;49.15
59063;BME280;44851;45.648;9.004;2023-01-27T12:21:20;98700.34;;;4.88;49.60
59063;BME280;44851;45.648;9.004;2023-01-27T12:23:57;98701.94;;;4.78;49.57
59063;BME280;44851;45.648;9.004;2023-01-27T12:26:34;98699.53;;;4.88;49.45
59063;BME280;44851;45.648;9.004;2023-01-27T12:29:40;98696.66;;;4.79;49.11
59063;BME280;44851;45.648;9.004;2023-01-27T12:32:17;98698.47;;;4.90;49.58
59063;BME280;44851;45.648;9.004;2023-01-27T12:34:48;98700.13;;;4.91;50.60
59063;BME280;44851;45.648;9.004;2023-01-27T12:37:21;98696.81;;;4.89;50.84
59063;BME280;44851;45.648;9.004;2023-01-27T12:39:51;98697.44;;;4.93;51.06
59063;BME280;44851;45.648;9.004;2023-01-27T12:42:41;98697.88;;;4.87;49.94
59063;BME280;44851;45.648;9.004;2023-01-27T12:45:23;98690.72;;;4.90;50.18
59063;BME280;44851;45.648;9.004;2023-01-27T12:48:13;98686.00;;;4.84;50.37
59063;BME280;44851;45.648;9.004;2023-01-27T12:51:05;98678.22;;;4.73;50.19
59063;BME280;44851;45.648;9.004;2023-01-27T12:53:37;98682.75;;;4.93;50.19
59063;BME280;44851;45.648;9.004;2023-01-27T12:56:10;98681.72;;;4.96;50.28
59063;BME280;44851;45.648;9.004;2023-01-27T13:01:28;98685.84;;;4.98;51.60
59063;BME280;44851;45.648;9.004;2023-01-27T13:03:58;98685.69;;;4.89;50.69
59063;BME280;44851;45.648;9.004;2023-01-27T13:06:48;98687.72;;;4.96;49.47
59063;BME280;44851;45.648;9.004;2023-01-27T13:09:28;98686.50;;;4.89;48.93
59063;BME280;44851;45.648;9.004;2023-01-27T13:11:57;98685.00;;;4.98;50.06
59063;BME280;44851;45.648;9.004;2023-01-27T13:14:28;98686.03;;;4.95;50.81
59063;BME280;44851;45.648;9.004;2023-01-27T13:16:56;98694.75;;;4.94;49.83
59063;BME280;44851;45.648;9.004;2023-01-27T13:19:43;98690.47;;;4.82;48.23
59063;BME280;44851;45.648;9.004;2023-01-27T13:22:16;98693.53;;;4.87;48.46
59063;BME280;44851;45.648;9.004;2023-01-27T13:24:46;98692.84;;;4.85;48.22
59063;BME280;44851;45.648;9.004;2023-01-27T13:27:16;98692.84;;;4.85;49.02
59063;BME280;44851;45.648;9.004;2023-01-27T13:30:22;98692.09;;;4.83;48.09
59063;BME280;44851;45.648;9.004;2023-01-27T13:32:43;98691.13;;;4.73;47.29
59063;BME280;44851;45.648;9.004;2023-01-27T13:35:30;98694.19;;;4.78;46.78
59063;BME280;44851;45.648;9.004;2023-01-27T13:38:19;98689.97;;;4.77;46.46
59063;BME280;44851;45.648;9.004;2023-01-27T13:40:47;98689.34;;;4.73;46.37
59063;BME280;44851;45.648;9.004;2023-01-27T13:43:25;98686.44;;;4.78;45.73
59063;BME280;44851;45.648;9.004;2023-01-27T13:45:56;98692.56;;;4.77;46.55
59063;BME280;44851;45.648;9.004;2023-01-27T13:48:37;98691.84;;;4.75;46.10
59063;BME280;44851;45.648;9.004;2023-01-27T13:51:09;98691.41;;;4.81;46.84
59063;BME280;44851;45.648;9.004;2023-01-27T13:53:36;98689.41;;;4.84;46.67
59063;BME280;44851;45.648;9.004;2023-01-27T13:56:15;98693.53;;;4.87;46.57
59063;BME280;44851;45.648;9.004;2023-01-27T14:10:33;98687.44;;;4.88;45.41
59063;BME280;44851;45.648;9.004;2023-01-27T14:15:45;98688.81;;;4.81;45.02
59063;BME280;44851;45.648;9.004;2023-01-27T14:18:16;98685.63;;;4.77;44.56
59063;BME280;44851;45.648;9.004;2023-01-27T14:23:34;98677.06;;;4.77;44.41
59063;BME280;44851;45.648;9.004;2023-01-27T14:29:09;98675.13;;;4.68;44.30
59063;BME280;44851;45.648;9.004;2023-01-27T14:34:51;98682.44;;;4.74;44.52
59063;BME280;44851;45.648;9.004;2023-01-27T14:43:17;98675.47;;;4.87;45.19
59063;BME280;44851;45.648;9.004;2023-01-27T14:45:50;98675.97;;;4.92;45.25
59063;BME280;44851;45.648;9.004;2023-01-27T14:51:10;98686.28;;;4.92;44.57
59063;BME280;44851;45.648;9.004;2023-01-27T14:54:00;98682.50;;;4.85;44.41
59063;BME280;44851;45.648;9.004;2023-01-27T15:05:10;98690.53;;;4.69;45.87
59063;BME280;44851;45.648;9.004;2023-01-27T15:07:48;98695.09;;;4.66;46.60
59063;BME280;44851;45.648;9.004;2023-01-27T15:18:47;98678.16;;;4.62;44.26
59063;BME280;44851;45.648;9.004;2023-01-27T15:26:23;98673.94;;;4.61;44.79
59063;BME280;44851;45.648;9.004;2023-01-27T15:28:51;98670.53;;;4.60;44.56
59063;BME280;44851;45.648;9.004;2023-01-27T15:41:34;98674.88;;;4.59;45.09
59063;BME280;44851;45.648;9.004;2023-01-27T15:44:27;98685.19;;;4.59;44.34
59063;BME280;44851;45.648;9.004;2023-01-27T15:47:01;98677.91;;;4.53;44.41
59063;BME280;44851;45.648;9.004;2023-01-27T15:49:30;98680.69;;;4.50;44.68
59063;BME280;44851;45.648;9.004;2023-01-27T15:55:04;98677.41;;;4.48;45.82